Time,TemperatureF,DewpointF,PressureIn,WindDirection,WindDirectionDegrees,WindSpeedMPH,WindSpeedGustMPH,Humidity,HourlyPrecipIn,Conditions,Clouds,dailyrainin,SoftwareType,DateUTC
2013-02-16 00:00:00,40.2,25.3,29.95,NE,45,6.0,6.0,55,0.00,,,0.00,Wunderground v.1.15,2013-02-16 06:00:00,
2013-02-16 00:05:00,40.2,25.3,29.95,NE,34,6.0,7.0,55,0.00,,,0.00,Wunderground v.1.15,2013-02-16 06:05:00,
2013-02-16 00:15:00,40.0,26.8,29.95,North,5,4.0,16.0,59,0.00,,,0.00,Wunderground v.1.15,2013-02-16 06:15:00,
2013-02-16 00:20:00,39.9,27.5,29.95,NNE,33,4.0,4.0,61,0.00,,,0.00,Wunderground v.1.15,2013-02-16 06:20:00,
2013-02-16 00:30:00,39.6,27.6,29.95,NNE,22,5.0,16.0,62,0.00,,,0.00,Wunderground v.1.15,2013-02-16 06:30:00,
2013-02-16 00:35:00,39.4,27.1,29.95,NNE,30,6.0,16.0,61,0.00,,,0.00,Wunderground v.1.15,2013-02-16 06:35:00,
2013-02-16 00:40:00,39.3,27.0,29.96,NNE,30,7.0,7.0,61,0.00,,,0.00,Wunderground v.1.15,2013-02-16 06:40:00,
2013-02-16 00:45:00,39.2,26.5,29.96,NNE,15,6.0,16.0,60,0.00,,,0.00,Wunderground v.1.15,2013-02-16 06:45:00,
2013-02-16 00:50:00,39.2,26.5,29.96,NNE,32,5.0,16.0,60,0.00,,,0.00,Wunderground v.1.15,2013-02-16 06:50:00,
2013-02-16 01:00:00,39.1,25.1,29.96,NNE,33,4.0,16.0,57,0.00,,,0.00,Wunderground v.1.15,2013-02-16 07:00:00,
2013-02-16 01:05:00,39.0,25.0,29.96,North,355,6.0,16.0,57,0.00,,,0.00,Wunderground v.1.15,2013-02-16 07:05:00,
2013-02-16 01:10:00,39.0,24.6,29.96,NNE,32,6.0,16.0,56,0.00,,,0.00,Wunderground v.1.15,2013-02-16 07:10:00,
2013-02-16 01:20:00,39.0,24.6,29.96,NE,42,5.0,5.0,56,0.00,,,0.00,Wunderground v.1.15,2013-02-16 07:20:00,
2013-02-16 01:25:00,38.9,24.5,29.96,NNW,337,3.0,16.0,56,0.00,,,0.00,Wunderground v.1.15,2013-02-16 07:25:00,
2013-02-16 01:35:00,38.7,24.3,29.96,North,360,3.0,16.0,56,0.00,,,0.00,Wunderground v.1.15,2013-02-16 07:35:00,
2013-02-16 01:40:00,38.6,24.2,29.96,NNE,20,4.0,4.0,56,0.00,,,0.00,Wunderground v.1.15,2013-02-16 07:40:00,
2013-02-16 01:45:00,38.5,24.6,29.96,NNE,26,3.0,16.0,57,0.00,,,0.00,Wunderground v.1.15,2013-02-16 07:45:00,
2013-02-16 01:50:00,38.4,24.5,29.96,North,5,1.0,16.0,57,0.00,,,0.00,Wunderground v.1.15,2013-02-16 07:50:00,
2013-02-16 01:55:00,38.2,24.3,29.96,NNE,30,2.0,16.0,57,0.00,,,0.00,Wunderground v.1.15,2013-02-16 07:55:00,
2013-02-16 02:00:00,38.0,24.1,29.96,NE,36,2.0,2.0,57,0.00,,,0.00,Wunderground v.1.15,2013-02-16 08:00:00,
2013-02-16 02:10:00,37.9,24.0,29.96,NNE,18,2.0,2.0,57,0.00,,,0.00,Wunderground v.1.15,2013-02-16 08:10:00,
2013-02-16 02:15:00,37.8,25.5,29.96,North,5,1.0,16.0,61,0.00,,,0.00,Wunderground v.1.15,2013-02-16 08:15:00,
2013-02-16 02:25:00,37.5,24.5,29.95,North,5,0.0,16.0,59,0.00,,,0.00,Wunderground v.1.15,2013-02-16 08:25:00,
2013-02-16 02:30:00,37.2,24.2,29.95,North,360,0.0,16.0,59,0.00,,,0.00,Wunderground v.1.15,2013-02-16 08:30:00,
2013-02-16 02:35:00,37.1,24.1,29.95,North,5,0.0,16.0,59,0.00,,,0.00,Wunderground v.1.15,2013-02-16 08:35:00,
2013-02-16 02:45:00,36.7,24.5,29.95,North,360,0.0,16.0,61,0.00,,,0.00,Wunderground v.1.15,2013-02-16 08:45:00,
2013-02-16 02:50:00,36.5,24.7,29.95,North,360,0.0,16.0,62,0.00,,,0.00,Wunderground v.1.15,2013-02-16 08:50:00,
2013-02-16 02:55:00,36.2,24.4,29.96,North,355,0.0,16.0,62,0.00,,,0.00,Wunderground v.1.15,2013-02-16 08:55:00,
2013-02-16 03:00:00,36.1,24.7,29.96,North,355,0.0,16.0,63,0.00,,,0.00,Wunderground v.1.15,2013-02-16 09:00:00,
2013-02-16 03:05:00,36.0,25.0,29.96,North,355,0.0,16.0,64,0.00,,,0.00,Wunderground v.1.15,2013-02-16 09:05:00,
2013-02-16 03:15:00,35.7,25.8,29.95,WNW,300,3.0,16.0,67,0.00,,,0.00,Wunderground v.1.15,2013-02-16 09:15:00,
2013-02-16 03:20:00,35.6,26.1,29.95,NW,323,4.0,16.0,68,0.00,,,0.00,Wunderground v.1.15,2013-02-16 09:20:00,
2013-02-16 03:30:00,35.2,26.0,29.95,NW,313,4.0,4.0,69,0.00,,,0.00,Wunderground v.1.15,2013-02-16 09:30:00,
2013-02-16 03:35:00,35.1,26.3,29.95,NW,308,4.0,16.0,70,0.00,,,0.00,Wunderground v.1.15,2013-02-16 09:35:00,
2013-02-16 03:40:00,35.0,26.2,29.96,NW,309,3.0,3.0,70,0.00,,,0.00,Wunderground v.1.15,2013-02-16 09:40:00,
2013-02-16 03:50:00,34.8,26.7,29.96,NNW,343,4.0,4.0,72,0.00,,,0.00,Wunderground v.1.15,2013-02-16 09:50:00,
2013-02-16 03:55:00,34.6,26.2,29.96,NW,314,3.0,16.0,71,0.00,,,0.00,Wunderground v.1.15,2013-02-16 09:55:00,
2013-02-16 04:00:00,34.4,26.0,29.96,NW,316,2.0,2.0,71,0.00,,,0.00,Wunderground v.1.15,2013-02-16 10:00:00,
2013-02-16 04:05:00,34.4,26.3,29.96,NW,319,1.0,16.0,72,0.00,,,0.00,Wunderground v.1.15,2013-02-16 10:05:00,
2013-02-16 04:10:00,34.4,26.3,29.96,NNW,344,1.0,1.0,72,0.00,,,0.00,Wunderground v.1.15,2013-02-16 10:10:00,
2013-02-16 04:15:00,34.3,26.2,29.96,NNW,344,0.0,16.0,72,0.00,,,0.00,Wunderground v.1.15,2013-02-16 10:15:00,
2013-02-16 04:25:00,34.0,25.9,29.96,NW,322,2.0,16.0,72,0.00,,,0.00,Wunderground v.1.15,2013-02-16 10:25:00,
2013-02-16 04:35:00,33.8,25.4,29.96,NNW,336,1.0,16.0,71,0.00,,,0.00,Wunderground v.1.15,2013-02-16 10:35:00,
2013-02-16 04:40:00,33.6,25.2,29.96,NW,306,2.0,16.0,71,0.00,,,0.00,Wunderground v.1.15,2013-02-16 10:40:00,
2013-02-16 04:45:00,33.5,25.1,29.96,WNW,296,4.0,16.0,71,0.00,,,0.00,Wunderground v.1.15,2013-02-16 10:45:00,
2013-02-16 04:50:00,33.4,24.7,29.96,NW,310,4.0,4.0,70,0.00,,,0.00,Wunderground v.1.15,2013-02-16 10:50:00,
2013-02-16 05:00:00,33.2,22.7,29.97,WNW,298,5.0,16.0,65,0.00,,,0.00,Wunderground v.1.15,2013-02-16 11:00:00,
2013-02-16 05:05:00,33.0,21.8,29.97,WNW,292,6.0,16.0,63,0.00,,,0.00,Wunderground v.1.15,2013-02-16 11:05:00,
2013-02-16 05:10:00,32.9,21.7,29.97,NNW,331,7.0,16.0,63,0.00,,,0.00,Wunderground v.1.15,2013-02-16 11:10:00,
2013-02-16 05:15:00,32.7,21.5,29.97,NW,314,6.0,16.0,63,0.00,,,0.00,Wunderground v.1.15,2013-02-16 11:15:00,
2013-02-16 05:20:00,32.6,21.4,29.97,NW,311,5.0,5.0,63,0.00,,,0.00,Wunderground v.1.15,2013-02-16 11:20:00,
2013-02-16 05:30:00,32.3,21.5,29.97,NW,321,2.0,2.0,64,0.00,,,0.00,Wunderground v.1.15,2013-02-16 11:30:00,
2013-02-16 05:40:00,32.1,21.7,29.98,NW,311,1.0,1.0,65,0.00,,,0.00,Wunderground v.1.15,2013-02-16 11:40:00,
2013-02-16 05:45:00,31.9,21.5,29.98,WNW,302,1.0,2.0,65,0.00,,,0.00,Wunderground v.1.15,2013-02-16 11:45:00,
2013-02-16 05:50:00,31.8,21.4,29.98,NW,311,1.0,1.0,65,0.00,,,0.00,Wunderground v.1.15,2013-02-16 11:50:00,
2013-02-16 05:55:00,31.7,21.3,29.97,NW,325,1.0,16.0,65,0.00,,,0.00,Wunderground v.1.15,2013-02-16 11:55:00,
2013-02-16 06:05:00,31.4,21.3,29.97,NW,325,0.0,16.0,66,0.00,,,0.00,Wunderground v.1.15,2013-02-16 12:05:00,
2013-02-16 06:10:00,31.3,21.3,29.97,NW,325,0.0,16.0,66,0.00,,,0.00,Wunderground v.1.15,2013-02-16 12:10:00,
2013-02-16 06:15:00,31.2,20.8,29.97,NW,322,1.0,16.0,65,0.00,,,0.00,Wunderground v.1.15,2013-02-16 12:15:00,
2013-02-16 06:20:00,31.2,20.8,29.97,North,349,1.0,1.0,65,0.00,,,0.00,Wunderground v.1.15,2013-02-16 12:20:00,
2013-02-16 06:30:00,31.2,20.4,29.98,NW,321,2.0,2.0,64,0.00,,,0.00,Wunderground v.1.15,2013-02-16 12:30:00,
2013-02-16 06:40:00,31.2,20.4,29.98,NNW,336,1.0,1.0,64,0.00,,,0.00,Wunderground v.1.15,2013-02-16 12:40:00,
2013-02-16 06:45:00,31.2,20.4,29.98,NNW,346,2.0,5.0,64,0.00,,,0.00,Wunderground v.1.15,2013-02-16 12:45:00,
2013-02-16 06:50:00,31.2,20.4,29.98,NW,325,2.0,16.0,64,0.00,,,0.00,Wunderground v.1.15,2013-02-16 12:50:00,
2013-02-16 06:55:00,31.1,20.3,29.98,NW,323,2.0,16.0,64,0.00,,,0.00,Wunderground v.1.15,2013-02-16 12:55:00,
2013-02-16 07:00:00,31.1,20.3,29.98,NW,325,1.0,1.0,64,0.00,,,0.00,Wunderground v.1.15,2013-02-16 13:00:00,
2013-02-16 07:05:00,31.2,20.4,29.98,NNW,333,1.0,4.0,64,0.00,,,0.00,Wunderground v.1.15,2013-02-16 13:05:00,
2013-02-16 07:15:00,31.6,20.4,29.99,NW,310,2.0,16.0,63,0.00,,,0.00,Wunderground v.1.15,2013-02-16 13:15:00,
2013-02-16 07:20:00,31.7,20.5,29.99,NNW,342,3.0,3.0,63,0.00,,,0.00,Wunderground v.1.15,2013-02-16 13:20:00,
2013-02-16 07:30:00,32.3,20.7,29.99,NW,304,2.0,16.0,62,0.00,,,0.00,Wunderground v.1.15,2013-02-16 13:30:00,
2013-02-16 07:35:00,32.5,20.9,29.99,NNW,344,4.0,16.0,62,0.00,,,0.00,Wunderground v.1.15,2013-02-16 13:35:00,
2013-02-16 07:40:00,32.8,21.2,29.99,NW,325,4.0,16.0,62,0.00,,,0.00,Wunderground v.1.15,2013-02-16 13:40:00,
2013-02-16 07:50:00,33.3,21.3,29.99,North,5,5.0,5.0,61,0.00,,,0.00,Wunderground v.1.15,2013-02-16 13:50:00,
2013-02-16 07:55:00,33.5,21.1,29.99,NNE,13,4.0,16.0,60,0.00,,,0.00,Wunderground v.1.15,2013-02-16 13:55:00,
2013-02-16 08:00:00,33.5,21.1,29.99,NNW,337,3.0,3.0,60,0.00,,,0.00,Wunderground v.1.15,2013-02-16 14:00:00,
2013-02-16 08:05:00,33.6,21.2,29.99,NNW,338,1.0,16.0,60,0.00,,,0.00,Wunderground v.1.15,2013-02-16 14:05:00,
2013-02-16 08:10:00,33.7,20.9,30.00,North,355,3.0,16.0,59,0.00,,,0.00,Wunderground v.1.15,2013-02-16 14:10:00,
2013-02-16 08:20:00,34.0,21.2,30.00,NW,325,5.0,5.0,59,0.00,,,0.00,Wunderground v.1.15,2013-02-16 14:20:00,
2013-02-16 08:25:00,34.4,21.1,30.00,NNE,22,4.0,16.0,58,0.00,,,0.00,Wunderground v.1.15,2013-02-16 14:25:00,
2013-02-16 08:35:00,34.8,21.1,30.00,NNW,327,4.0,16.0,57,0.00,,,0.00,Wunderground v.1.15,2013-02-16 14:35:00,
2013-02-16 08:40:00,35.1,21.8,30.00,WNW,290,4.0,16.0,58,0.00,,,0.00,Wunderground v.1.15,2013-02-16 14:40:00,
2013-02-16 08:45:00,35.0,21.3,30.00,NNW,337,4.0,16.0,57,0.00,,,0.00,Wunderground v.1.15,2013-02-16 14:45:00,
2013-02-16 08:55:00,34.5,21.2,30.00,NW,319,4.0,16.0,58,0.00,,,0.00,Wunderground v.1.15,2013-02-16 14:55:00,
2013-02-16 09:00:00,34.6,21.3,30.00,NNE,29,4.0,16.0,58,0.00,,,0.00,Wunderground v.1.15,2013-02-16 15:00:00,
2013-02-16 09:05:00,34.4,21.1,30.00,NE,42,5.0,16.0,58,0.00,,,0.00,Wunderground v.1.15,2013-02-16 15:05:00,
2013-02-16 09:10:00,34.4,21.1,30.00,NNW,348,6.0,6.0,58,0.00,,,0.00,Wunderground v.1.15,2013-02-16 15:10:00,
2013-02-16 09:20:00,35.0,21.7,30.00,NNW,340,5.0,5.0,58,0.00,,,0.00,Wunderground v.1.15,2013-02-16 15:20:00,
2013-02-16 09:30:00,35.5,21.3,30.01,North,9,3.0,16.0,56,0.00,,,0.00,Wunderground v.1.15,2013-02-16 15:30:00,
2013-02-16 09:35:00,35.5,21.8,30.01,NNW,343,5.0,16.0,57,0.00,,,0.00,Wunderground v.1.15,2013-02-16 15:35:00,
2013-02-16 09:40:00,36.2,22.4,30.02,NNW,344,4.0,16.0,57,0.00,,,0.00,Wunderground v.1.15,2013-02-16 15:40:00,
2013-02-16 09:45:00,37.1,22.8,30.02,NNW,327,3.0,16.0,56,0.00,,,0.00,Wunderground v.1.15,2013-02-16 15:45:00,
2013-02-16 09:50:00,37.7,23.0,30.02,WNW,286,3.0,16.0,55,0.00,,,0.00,Wunderground v.1.15,2013-02-16 15:50:00,
2013-02-16 09:55:00,37.7,22.5,30.02,WNW,298,6.0,16.0,54,0.00,,,0.00,Wunderground v.1.15,2013-02-16 15:55:00,
2013-02-16 10:05:00,37.3,23.0,30.02,WNW,299,7.0,16.0,56,0.00,,,0.00,Wunderground v.1.15,2013-02-16 16:05:00,
2013-02-16 10:10:00,36.7,22.5,30.03,NNE,32,7.0,16.0,56,0.00,,,0.00,Wunderground v.1.15,2013-02-16 16:10:00,
2013-02-16 10:15:00,36.0,21.8,30.03,North,360,6.0,16.0,56,0.00,,,0.00,Wunderground v.1.15,2013-02-16 16:15:00,
2013-02-16 10:25:00,35.7,21.9,30.03,North,350,6.0,11.0,57,0.00,,,0.00,Wunderground v.1.15,2013-02-16 16:25:00,
2013-02-16 10:30:00,35.7,21.9,30.03,North,360,8.0,16.0,57,0.00,,,0.00,Wunderground v.1.15,2013-02-16 16:30:00,
2013-02-16 10:40:00,36.9,22.2,30.03,NNE,30,6.0,6.0,55,0.00,,,0.00,Wunderground v.1.15,2013-02-16 16:40:00,
2013-02-16 10:45:00,36.4,21.8,30.03,NNW,347,6.0,16.0,55,0.00,,,0.00,Wunderground v.1.15,2013-02-16 16:45:00,
2013-02-16 10:50:00,36.8,22.6,30.03,West,263,5.0,16.0,56,0.00,,,0.00,Wunderground v.1.15,2013-02-16 16:50:00,
2013-02-16 10:55:00,37.7,23.0,30.03,NW,304,4.0,16.0,55,0.00,,,0.00,Wunderground v.1.15,2013-02-16 16:55:00,
2013-02-16 11:00:00,38.2,23.0,30.03,North,350,5.0,16.0,54,0.00,,,0.00,Wunderground v.1.15,2013-02-16 17:00:00,
2013-02-16 11:10:00,37.1,22.4,30.03,North,5,8.0,8.0,55,0.00,,,0.00,Wunderground v.1.15,2013-02-16 17:10:00,
2013-02-16 11:15:00,36.8,22.6,30.03,NW,310,7.0,16.0,56,0.00,,,0.00,Wunderground v.1.15,2013-02-16 17:15:00,
2013-02-16 11:20:00,36.8,23.0,30.03,WNW,286,6.0,16.0,57,0.00,,,0.00,Wunderground v.1.15,2013-02-16 17:20:00,
2013-02-16 11:30:00,37.0,23.6,30.03,WNW,296,7.0,16.0,58,0.00,,,0.00,Wunderground v.1.15,2013-02-16 17:30:00,
2013-02-16 11:35:00,37.8,24.7,30.03,WNW,300,5.0,16.0,59,0.00,,,0.00,Wunderground v.1.15,2013-02-16 17:35:00,
2013-02-16 11:45:00,38.3,24.8,30.03,West,278,3.0,16.0,58,0.00,,,0.00,Wunderground v.1.15,2013-02-16 17:45:00,
2013-02-16 11:50:00,38.0,24.1,30.03,WNW,290,4.0,16.0,57,0.00,,,0.00,Wunderground v.1.15,2013-02-16 17:50:00,
2013-02-16 11:55:00,37.6,23.7,30.03,WNW,294,7.0,16.0,57,0.00,,,0.00,Wunderground v.1.15,2013-02-16 17:55:00,
2013-02-16 12:00:00,37.7,23.8,30.03,WNW,294,9.0,16.0,57,0.00,,,0.00,Wunderground v.1.15,2013-02-16 18:00:00,
2013-02-16 12:05:00,38.0,23.7,30.03,West,275,8.0,16.0,56,0.00,,,0.00,Wunderground v.1.15,2013-02-16 18:05:00,
2013-02-16 12:10:00,37.8,23.9,30.02,NW,315,7.0,7.0,57,0.00,,,0.00,Wunderground v.1.15,2013-02-16 18:10:00,
2013-02-16 12:20:00,38.1,23.8,30.02,North,11,6.0,6.0,56,0.00,,,0.00,Wunderground v.1.15,2013-02-16 18:20:00,
2013-02-16 12:25:00,39.0,24.6,30.02,West,263,6.0,16.0,56,0.00,,,0.00,Wunderground v.1.15,2013-02-16 18:25:00,
2013-02-16 12:35:00,39.5,24.7,30.02,West,281,6.0,10.0,55,0.00,,,0.00,Wunderground v.1.15,2013-02-16 18:35:00,
2013-02-16 12:40:00,39.6,24.7,30.02,NNW,327,6.0,18.0,55,0.00,,,0.00,Wunderground v.1.15,2013-02-16 18:40:00,
2013-02-16 12:45:00,39.3,24.5,30.02,NNW,327,8.0,18.0,55,0.00,,,0.00,Wunderground v.1.15,2013-02-16 18:45:00,
2013-02-16 12:55:00,39.1,23.8,30.01,WNW,283,8.0,16.0,54,0.00,,,0.00,Wunderground v.1.15,2013-02-16 18:55:00,
2013-02-16 13:00:00,39.4,24.6,30.01,NW,311,8.0,16.0,55,0.00,,,0.00,Wunderground v.1.15,2013-02-16 19:00:00,
2013-02-16 13:05:00,39.3,24.0,30.01,WNW,292,7.0,16.0,54,0.00,,,0.00,Wunderground v.1.15,2013-02-16 19:05:00,
2013-02-16 13:10:00,38.9,24.5,30.01,NNW,334,7.0,7.0,56,0.00,,,0.00,Wunderground v.1.15,2013-02-16 19:10:00,
2013-02-16 13:15:00,38.7,24.3,30.01,WNW,290,7.0,16.0,56,0.00,,,0.00,Wunderground v.1.15,2013-02-16 19:15:00,
2013-02-16 13:25:00,38.6,24.2,30.01,WNW,300,7.0,16.0,56,0.00,,,0.00,Wunderground v.1.15,2013-02-16 19:25:00,
2013-02-16 13:30:00,38.9,24.5,30.01,WNW,284,6.0,16.0,56,0.00,,,0.00,Wunderground v.1.15,2013-02-16 19:30:00,
2013-02-16 13:40:00,38.3,24.4,30.01,NW,315,6.0,6.0,57,0.00,,,0.00,Wunderground v.1.15,2013-02-16 19:40:00,
2013-02-16 13:45:00,38.2,23.9,30.01,WNW,292,6.0,16.0,56,0.00,,,0.00,Wunderground v.1.15,2013-02-16 19:45:00,
2013-02-16 13:50:00,38.0,23.7,30.01,WNW,291,6.0,16.0,56,0.00,,,0.00,Wunderground v.1.15,2013-02-16 19:50:00,
2013-02-16 14:00:00,38.1,24.6,30.00,WNW,284,5.0,16.0,58,0.00,,,0.00,Wunderground v.1.15,2013-02-16 20:00:00,
2013-02-16 14:05:00,38.2,24.3,30.00,WNW,302,6.0,16.0,57,0.00,,,0.00,Wunderground v.1.15,2013-02-16 20:05:00,
2013-02-16 14:10:00,38.5,24.6,30.00,WNW,286,7.0,7.0,57,0.00,,,0.00,Wunderground v.1.15,2013-02-16 20:10:00,
2013-02-16 14:15:00,39.3,24.9,30.00,WNW,292,6.0,16.0,56,0.00,,,0.00,Wunderground v.1.15,2013-02-16 20:15:00,
2013-02-16 14:20:00,39.6,23.9,30.00,NNW,327,7.0,16.0,53,0.00,,,0.00,Wunderground v.1.15,2013-02-16 20:20:00,
2013-02-16 14:30:00,40.0,23.3,29.99,West,281,9.0,9.0,51,0.00,,,0.00,Wunderground v.1.15,2013-02-16 20:30:00,
2013-02-16 14:40:00,40.3,23.1,29.99,West,259,9.0,9.0,50,0.00,,,0.00,Wunderground v.1.15,2013-02-16 20:40:00,
2013-02-16 14:45:00,40.2,23.0,29.99,NW,317,7.0,16.0,50,0.00,,,0.00,Wunderground v.1.15,2013-02-16 20:45:00,
2013-02-16 14:50:00,40.8,23.6,29.99,NW,306,4.0,16.0,50,0.00,,,0.00,Wunderground v.1.15,2013-02-16 20:50:00,
2013-02-16 14:55:00,41.1,23.4,29.99,West,269,4.0,16.0,49,0.00,,,0.00,Wunderground v.1.15,2013-02-16 20:55:00,
2013-02-16 15:00:00,40.9,22.7,29.99,NW,306,6.0,16.0,48,0.00,,,0.00,Wunderground v.1.15,2013-02-16 21:00:00,
2013-02-16 15:10:00,40.5,22.8,29.99,NW,306,6.0,16.0,49,0.00,,,0.00,Wunderground v.1.15,2013-02-16 21:10:00,
2013-02-16 15:15:00,40.5,22.8,29.99,NNW,328,6.0,16.0,49,0.00,,,0.00,Wunderground v.1.15,2013-02-16 21:15:00,
2013-02-16 15:20:00,40.2,22.1,29.99,NW,305,9.0,9.0,48,0.00,,,0.00,Wunderground v.1.15,2013-02-16 21:20:00,
2013-02-16 15:25:00,40.3,22.1,29.99,WNW,290,8.0,16.0,48,0.00,,,0.00,Wunderground v.1.15,2013-02-16 21:25:00,
2013-02-16 15:35:00,40.3,21.6,29.99,WNW,303,6.0,16.0,47,0.00,,,0.00,Wunderground v.1.15,2013-02-16 21:35:00,
2013-02-16 15:45:00,39.3,20.7,29.99,West,272,7.0,16.0,47,0.00,,,0.00,Wunderground v.1.15,2013-02-16 21:45:00,
2013-02-16 15:50:00,39.5,20.9,29.99,WNW,290,7.0,7.0,47,0.00,,,0.00,Wunderground v.1.15,2013-02-16 21:50:00,
2013-02-16 15:55:00,39.8,20.7,29.99,WNW,288,7.0,16.0,46,0.00,,,0.00,Wunderground v.1.15,2013-02-16 21:55:00,
2013-02-16 16:00:00,39.7,20.6,29.99,NNW,337,6.0,6.0,46,0.00,,,0.00,Wunderground v.1.15,2013-02-16 22:00:00,
2013-02-16 16:05:00,39.0,19.4,29.99,WNW,293,6.0,16.0,45,0.00,,,0.00,Wunderground v.1.15,2013-02-16 22:05:00,
2013-02-16 16:15:00,39.3,20.7,29.99,WNW,292,4.0,16.0,47,0.00,,,0.00,Wunderground v.1.15,2013-02-16 22:15:00,
2013-02-16 16:20:00,38.9,20.4,29.99,West,279,6.0,6.0,47,0.00,,,0.00,Wunderground v.1.15,2013-02-16 22:20:00,
2013-02-16 16:25:00,38.7,20.2,30.00,NW,317,6.0,16.0,47,0.00,,,0.00,Wunderground v.1.15,2013-02-16 22:25:00,
2013-02-16 16:35:00,39.0,20.5,30.00,WNW,290,4.0,16.0,47,0.00,,,0.00,Wunderground v.1.15,2013-02-16 22:35:00,
2013-02-16 16:40:00,38.8,19.8,30.00,NW,326,7.0,7.0,46,0.00,,,0.00,Wunderground v.1.15,2013-02-16 22:40:00,
2013-02-16 16:50:00,38.5,20.0,30.00,NNW,339,4.0,16.0,47,0.00,,,0.00,Wunderground v.1.15,2013-02-16 22:50:00,
2013-02-16 16:55:00,38.8,20.3,30.00,NNW,339,3.0,16.0,47,0.00,,,0.00,Wunderground v.1.15,2013-02-16 22:55:00,
2013-02-16 17:00:00,38.6,19.6,30.00,NW,323,3.0,3.0,46,0.00,,,0.00,Wunderground v.1.15,2013-02-16 23:00:00,
2013-02-16 17:05:00,38.6,20.1,30.00,NNW,338,3.0,16.0,47,0.00,,,0.00,Wunderground v.1.15,2013-02-16 23:05:00,
2013-02-16 17:10:00,38.5,19.5,30.00,NNW,335,2.0,16.0,46,0.00,,,0.00,Wunderground v.1.15,2013-02-16 23:10:00,
2013-02-16 17:15:00,38.2,19.2,30.00,WNW,284,4.0,16.0,46,0.00,,,0.00,Wunderground v.1.15,2013-02-16 23:15:00,
2013-02-16 17:20:00,38.0,19.0,30.00,NNW,348,4.0,16.0,46,0.00,,,0.00,Wunderground v.1.15,2013-02-16 23:20:00,
2013-02-16 17:30:00,37.6,19.7,30.00,West,267,3.0,16.0,48,0.00,,,0.00,Wunderground v.1.15,2013-02-16 23:30:00,
2013-02-16 17:35:00,37.3,19.9,30.00,NW,310,3.0,16.0,49,0.00,,,0.00,Wunderground v.1.15,2013-02-16 23:35:00,
2013-02-16 17:40:00,37.1,20.2,30.00,NNW,346,2.0,2.0,50,0.00,,,0.00,Wunderground v.1.15,2013-02-16 23:40:00,
2013-02-16 17:45:00,36.9,19.0,30.00,NNW,338,2.0,16.0,48,0.00,,,0.00,Wunderground v.1.15,2013-02-16 23:45:00,
2013-02-16 17:50:00,36.7,19.3,30.00,NNW,333,2.0,16.0,49,0.00,,,0.00,Wunderground v.1.15,2013-02-16 23:50:00,
2013-02-16 18:00:00,36.4,19.0,30.00,NNW,346,2.0,2.0,49,0.00,,,0.00,Wunderground v.1.15,2013-02-17 00:00:00,
2013-02-16 18:05:00,36.3,18.9,30.00,NNW,346,1.0,16.0,49,0.00,,,0.00,Wunderground v.1.15,2013-02-17 00:05:00,
2013-02-16 18:10:00,36.1,19.2,30.00,NNW,344,1.0,1.0,50,0.00,,,0.00,Wunderground v.1.15,2013-02-17 00:10:00,
2013-02-16 18:20:00,35.8,19.0,30.00,NNW,344,0.0,16.0,50,0.00,,,0.00,Wunderground v.1.15,2013-02-17 00:20:00,
2013-02-16 18:25:00,35.7,19.3,30.00,NNW,344,1.0,16.0,51,0.00,,,0.00,Wunderground v.1.15,2013-02-17 00:25:00,
2013-02-16 18:35:00,35.5,19.6,30.00,NNW,344,0.0,16.0,52,0.00,,,0.00,Wunderground v.1.15,2013-02-17 00:35:00,
2013-02-16 18:40:00,35.4,19.5,30.01,NNW,344,0.0,16.0,52,0.00,,,0.00,Wunderground v.1.15,2013-02-17 00:40:00,
2013-02-16 18:45:00,35.3,19.4,30.01,NNW,344,0.0,16.0,52,0.00,,,0.00,Wunderground v.1.15,2013-02-17 00:45:00,
2013-02-16 18:50:00,35.2,19.3,30.01,NNW,344,0.0,16.0,52,0.00,,,0.00,Wunderground v.1.15,2013-02-17 00:50:00,
2013-02-16 18:55:00,35.0,19.1,30.01,NNW,344,0.0,16.0,52,0.00,,,0.00,Wunderground v.1.15,2013-02-17 00:55:00,
2013-02-16 19:05:00,34.8,19.4,30.01,NNW,344,0.0,16.0,53,0.00,,,0.00,Wunderground v.1.15,2013-02-17 01:05:00,
2013-02-16 19:15:00,34.9,19.5,30.01,NNW,344,0.0,16.0,53,0.00,,,0.00,Wunderground v.1.15,2013-02-17 01:15:00,
2013-02-16 19:20:00,34.8,19.4,30.01,NNW,344,0.0,16.0,53,0.00,,,0.00,Wunderground v.1.15,2013-02-17 01:20:00,
2013-02-16 19:25:00,34.5,19.5,30.01,NNW,344,0.0,16.0,54,0.00,,,0.00,Wunderground v.1.15,2013-02-17 01:25:00,
2013-02-16 19:30:00,34.4,19.9,30.01,NNW,344,0.0,16.0,55,0.00,,,0.00,Wunderground v.1.15,2013-02-17 01:30:00,
2013-02-16 19:40:00,34.4,20.3,30.01,NNW,344,0.0,16.0,56,0.00,,,0.00,Wunderground v.1.15,2013-02-17 01:40:00,
2013-02-16 19:45:00,34.4,20.7,30.01,NNW,344,0.0,16.0,57,0.00,,,0.00,Wunderground v.1.15,2013-02-17 01:45:00,
2013-02-16 19:50:00,34.3,20.6,30.01,NNW,344,0.0,16.0,57,0.00,,,0.00,Wunderground v.1.15,2013-02-17 01:50:00,
2013-02-16 19:55:00,34.0,20.8,30.01,NNW,344,0.0,16.0,58,0.00,,,0.00,Wunderground v.1.15,2013-02-17 01:55:00,
2013-02-16 20:00:00,33.8,21.0,30.01,NNW,344,0.0,16.0,59,0.00,,,0.00,Wunderground v.1.15,2013-02-17 02:00:00,
2013-02-16 20:10:00,33.4,21.0,30.00,NNW,344,0.0,16.0,60,0.00,,,0.00,Wunderground v.1.15,2013-02-17 02:10:00,
2013-02-16 20:15:00,33.2,21.2,30.00,NNW,344,0.0,16.0,61,0.00,,,0.00,Wunderground v.1.15,2013-02-17 02:15:00,
2013-02-16 20:20:00,32.7,20.7,30.00,NNW,344,0.0,16.0,61,0.00,,,0.00,Wunderground v.1.15,2013-02-17 02:20:00,
2013-02-16 20:25:00,32.6,21.0,30.00,NNW,344,0.0,16.0,62,0.00,,,0.00,Wunderground v.1.15,2013-02-17 02:25:00,
2013-02-16 20:30:00,32.7,21.1,30.00,NNW,344,0.0,16.0,62,0.00,,,0.00,Wunderground v.1.15,2013-02-17 02:30:00,
2013-02-16 20:35:00,32.6,21.0,30.00,NNW,344,0.0,16.0,62,0.00,,,0.00,Wunderground v.1.15,2013-02-17 02:35:00,
2013-02-16 20:40:00,32.5,20.5,30.00,NNW,344,0.0,16.0,61,0.00,,,0.00,Wunderground v.1.15,2013-02-17 02:40:00,
2013-02-16 20:45:00,32.5,20.9,30.00,NNW,344,0.0,16.0,62,0.00,,,0.00,Wunderground v.1.15,2013-02-17 02:45:00,
2013-02-16 20:50:00,32.8,21.2,30.00,NNW,344,0.0,16.0,62,0.00,,,0.00,Wunderground v.1.15,2013-02-17 02:50:00,
2013-02-16 20:55:00,32.9,21.3,30.00,NNW,344,0.0,16.0,62,0.00,,,0.00,Wunderground v.1.15,2013-02-17 02:55:00,
2013-02-16 21:00:00,32.9,20.9,30.00,NNW,344,0.0,16.0,61,0.00,,,0.00,Wunderground v.1.15,2013-02-17 03:00:00,
2013-02-16 21:05:00,32.8,21.2,30.00,NNW,344,0.0,16.0,62,0.00,,,0.00,Wunderground v.1.15,2013-02-17 03:05:00,
2013-02-16 21:15:00,32.6,20.6,30.00,NNW,344,0.0,16.0,61,0.00,,,0.00,Wunderground v.1.15,2013-02-17 03:15:00,
2013-02-16 21:25:00,32.8,21.2,29.99,NNW,344,0.0,16.0,62,0.00,,,0.00,Wunderground v.1.15,2013-02-17 03:25:00,
2013-02-16 21:30:00,32.9,21.3,29.99,NNW,344,0.0,16.0,62,0.00,,,0.00,Wunderground v.1.15,2013-02-17 03:30:00,
2013-02-16 21:35:00,33.0,21.8,29.99,NNW,344,0.0,16.0,63,0.00,,,0.00,Wunderground v.1.15,2013-02-17 03:35:00,
2013-02-16 21:40:00,33.0,21.4,30.00,NNW,344,0.0,16.0,62,0.00,,,0.00,Wunderground v.1.15,2013-02-17 03:40:00,
2013-02-16 21:45:00,33.1,21.5,30.00,NNW,344,0.0,16.0,62,0.00,,,0.00,Wunderground v.1.15,2013-02-17 03:45:00,
2013-02-16 21:50:00,33.3,21.7,30.00,NNW,344,0.0,16.0,62,0.00,,,0.00,Wunderground v.1.15,2013-02-17 03:50:00,
2013-02-16 21:55:00,33.4,21.4,30.00,NNW,344,0.0,16.0,61,0.00,,,0.00,Wunderground v.1.15,2013-02-17 03:55:00,
2013-02-16 22:00:00,33.5,21.5,30.00,NNW,344,0.0,16.0,61,0.00,,,0.00,Wunderground v.1.15,2013-02-17 04:00:00,
2013-02-16 22:10:00,33.7,22.1,30.00,NNW,344,0.0,16.0,62,0.00,,,0.00,Wunderground v.1.15,2013-02-17 04:10:00,
2013-02-16 22:15:00,33.7,21.7,30.00,NNW,344,0.0,16.0,61,0.00,,,0.00,Wunderground v.1.15,2013-02-17 04:15:00,
2013-02-16 22:20:00,33.8,21.8,30.00,NNW,344,0.0,16.0,61,0.00,,,0.00,Wunderground v.1.15,2013-02-17 04:20:00,
2013-02-16 22:30:00,34.0,21.6,30.00,NNW,344,0.0,16.0,60,0.00,,,0.00,Wunderground v.1.15,2013-02-17 04:30:00,
2013-02-16 22:35:00,34.1,21.7,30.00,NNW,344,0.0,16.0,60,0.00,,,0.00,Wunderground v.1.15,2013-02-17 04:35:00,
2013-02-16 22:40:00,34.3,21.8,30.00,NNW,344,0.0,16.0,60,0.00,,,0.00,Wunderground v.1.15,2013-02-17 04:40:00,
2013-02-16 22:45:00,34.4,22.3,30.00,NNW,344,0.0,16.0,61,0.00,,,0.00,Wunderground v.1.15,2013-02-17 04:45:00,
2013-02-16 22:50:00,34.4,22.3,30.00,NNW,344,0.0,16.0,61,0.00,,,0.00,Wunderground v.1.15,2013-02-17 04:50:00,
2013-02-16 22:55:00,34.4,22.3,30.00,NNW,344,0.0,16.0,61,0.00,,,0.00,Wunderground v.1.15,2013-02-17 04:55:00,
2013-02-16 23:00:00,34.4,21.9,30.00,NNW,344,0.0,16.0,60,0.00,,,0.00,Wunderground v.1.15,2013-02-17 05:00:00,
2013-02-16 23:05:00,34.4,21.9,30.00,NNW,344,0.0,16.0,60,0.00,,,0.00,Wunderground v.1.15,2013-02-17 05:05:00,
2013-02-16 23:10:00,34.4,21.5,30.00,WNW,296,0.0,16.0,59,0.00,,,0.00,Wunderground v.1.15,2013-02-17 05:10:00,
2013-02-16 23:15:00,34.4,20.7,30.00,SSW,203,1.0,16.0,57,0.00,,,0.00,Wunderground v.1.15,2013-02-17 05:15:00,
2013-02-16 23:20:00,34.4,20.7,30.00,SSW,213,2.0,16.0,57,0.00,,,0.00,Wunderground v.1.15,2013-02-17 05:20:00,
2013-02-16 23:25:00,34.4,20.7,30.00,SW,215,2.0,16.0,57,0.00,,,0.00,Wunderground v.1.15,2013-02-17 05:25:00,
2013-02-16 23:30:00,34.4,21.1,30.00,South,188,2.0,16.0,58,0.00,,,0.00,Wunderground v.1.15,2013-02-17 05:30:00,
2013-02-16 23:35:00,34.4,21.1,30.00,South,188,2.0,16.0,58,0.00,,,0.00,Wunderground v.1.15,2013-02-17 05:35:00,
2013-02-16 23:40:00,34.3,21.4,30.00,South,188,1.0,1.0,59,0.00,,,0.00,Wunderground v.1.15,2013-02-17 05:40:00,
2013-02-16 23:45:00,34.3,21.4,30.00,South,188,0.0,16.0,59,0.00,,,0.00,Wunderground v.1.15,2013-02-17 05:45:00,
2013-02-16 23:50:00,34.4,21.5,30.00,South,188,0.0,16.0,59,0.00,,,0.00,Wunderground v.1.15,2013-02-17 05:50:00,
2013-02-16 23:55:00,34.4,21.5,30.00,South,188,1.0,16.0,59,0.00,,,0.00,Wunderground v.1.15,2013-02-17 05:55:00,